sensor_id;sensor_type;location;lat;lon;timestamp;temperature;humidity
5901;DHT22;2976;49.764;9.796;2023-02-21T00:01:07;6.80;99.90
5901;DHT22;2976;49.764;9.796;2023-02-21T00:03:51;6.80;99.90
5901;DHT22;2976;49.764;9.796;2023-02-21T00:06:35;6.70;99.90
5901;DHT22;2976;49.764;9.796;2023-02-21T00:09:19;6.70;99.90
5901;DHT22;2976;49.764;9.796;2023-02-21T00:12:03;6.60;99.90
5901;DHT22;2976;49.764;9.796;2023-02-21T00:14:48;6.60;99.90
5901;DHT22;2976;49.764;9.796;2023-02-21T00:17:32;6.60;99.90
5901;DHT22;2976;49.764;9.796;2023-02-21T00:20:16;6.40;99.90
5901;DHT22;2976;49.764;9.796;2023-02-21T00:23:00;6.40;99.90
5901;DHT22;2976;49.764;9.796;2023-02-21T00:25:44;6.30;99.90
5901;DHT22;2976;49.764;9.796;2023-02-21T00:28:28;6.30;99.90
5901;DHT22;2976;49.764;9.796;2023-02-21T00:31:17;6.30;99.90
5901;DHT22;2976;49.764;9.796;2023-02-21T00:34:01;6.20;99.90
5901;DHT22;2976;49.764;9.796;2023-02-21T00:36:45;6.20;99.90
5901;DHT22;2976;49.764;9.796;2023-02-21T00:39:29;6.10;99.90
5901;DHT22;2976;49.764;9.796;2023-02-21T00:42:13;6.00;99.90
5901;DHT22;2976;49.764;9.796;2023-02-21T00:44:57;5.90;99.90
5901;DHT22;2976;49.764;9.796;2023-02-21T00:47:42;5.70;99.90
5901;DHT22;2976;49.764;9.796;2023-02-21T00:50:26;5.60;99.90
5901;DHT22;2976;49.764;9.796;2023-02-21T00:53:09;5.50;99.90
5901;DHT22;2976;49.764;9.796;2023-02-21T00:55:53;5.60;99.90
5901;DHT22;2976;49.764;9.796;2023-02-21T00:58:38;5.60;99.90
5901;DHT22;2976;49.764;9.796;2023-02-21T01:01:21;5.60;99.90
5901;DHT22;2976;49.764;9.796;2023-02-21T01:04:05;5.60;99.90
5901;DHT22;2976;49.764;9.796;2023-02-21T01:06:50;5.50;99.90
5901;DHT22;2976;49.764;9.796;2023-02-21T01:09:35;5.40;99.90
5901;DHT22;2976;49.764;9.796;2023-02-21T01:12:19;5.30;99.90
5901;DHT22;2976;49.764;9.796;2023-02-21T01:15:04;5.30;99.90
5901;DHT22;2976;49.764;9.796;2023-02-21T01:17:48;5.50;99.90
5901;DHT22;2976;49.764;9.796;2023-02-21T01:20:32;5.50;99.90
5901;DHT22;2976;49.764;9.796;2023-02-21T01:23:16;5.40;99.90
5901;DHT22;2976;49.764;9.796;2023-02-21T01:26:00;5.20;99.90
5901;DHT22;2976;49.764;9.796;2023-02-21T01:28:45;5.20;99.90
5901;DHT22;2976;49.764;9.796;2023-02-21T01:31:30;5.20;99.90
5901;DHT22;2976;49.764;9.796;2023-02-21T01:34:14;5.00;99.90
5901;DHT22;2976;49.764;9.796;2023-02-21T01:36:58;5.00;99.90
5901;DHT22;2976;49.764;9.796;2023-02-21T01:39:42;4.80;99.90
5901;DHT22;2976;49.764;9.796;2023-02-21T01:42:26;4.70;99.90
5901;DHT22;2976;49.764;9.796;2023-02-21T01:45:49;4.70;99.90
5901;DHT22;2976;49.764;9.796;2023-02-21T01:48:34;4.70;99.90
5901;DHT22;2976;49.764;9.796;2023-02-21T01:51:22;4.60;99.90
5901;DHT22;2976;49.764;9.796;2023-02-21T01:54:08;4.50;99.90
5901;DHT22;2976;49.764;9.796;2023-02-21T01:56:53;4.40;99.90
5901;DHT22;2976;49.764;9.796;2023-02-21T01:59:38;4.30;99.90
5901;DHT22;2976;49.764;9.796;2023-02-21T02:05:36;4.10;99.90
5901;DHT22;2976;49.764;9.796;2023-02-21T02:08:25;4.00;99.90
5901;DHT22;2976;49.764;9.796;2023-02-21T02:11:22;4.00;99.90
5901;DHT22;2976;49.764;9.796;2023-02-21T02:16:52;4.00;99.90
5901;DHT22;2976;49.764;9.796;2023-02-21T02:19:49;4.00;99.90
5901;DHT22;2976;49.764;9.796;2023-02-21T02:22:45;4.10;99.90
5901;DHT22;2976;49.764;9.796;2023-02-21T02:37:13;5.30;99.90
5901;DHT22;2976;49.764;9.796;2023-02-21T02:40:31;5.40;99.90
5901;DHT22;2976;49.764;9.796;2023-02-21T02:42:47;5.60;99.90
5901;DHT22;2976;49.764;9.796;2023-02-21T02:47:58;5.70;99.90
5901;DHT22;2976;49.764;9.796;2023-02-21T02:50:26;5.90;99.90
5901;DHT22;2976;49.764;9.796;2023-02-21T02:52:54;5.90;99.90
5901;DHT22;2976;49.764;9.796;2023-02-21T02:55:42;6.00;99.90
5901;DHT22;2976;49.764;9.796;2023-02-21T02:58:11;6.10;99.90
5901;DHT22;2976;49.764;9.796;2023-02-21T03:00:39;6.10;99.90
5901;DHT22;2976;49.764;9.796;2023-02-21T03:06:33;6.20;99.90
5901;DHT22;2976;49.764;9.796;2023-02-21T03:12:16;6.20;99.90
5901;DHT22;2976;49.764;9.796;2023-02-21T03:14:57;6.10;99.90
5901;DHT22;2976;49.764;9.796;2023-02-21T03:17:25;6.10;99.90
5901;DHT22;2976;49.764;9.796;2023-02-21T03:19:53;6.00;99.90
5901;DHT22;2976;49.764;9.796;2023-02-21T03:22:24;6.00;99.90
5901;DHT22;2976;49.764;9.796;2023-02-21T03:24:51;5.90;99.90
5901;DHT22;2976;49.764;9.796;2023-02-21T03:27:19;5.90;99.90
5901;DHT22;2976;49.764;9.796;2023-02-21T03:29:45;5.80;99.90
5901;DHT22;2976;49.764;9.796;2023-02-21T03:32:19;5.80;99.90
5901;DHT22;2976;49.764;9.796;2023-02-21T03:34:46;5.60;99.90
5901;DHT22;2976;49.764;9.796;2023-02-21T03:40:11;5.40;99.90
5901;DHT22;2976;49.764;9.796;2023-02-21T03:42:37;5.20;99.90
5901;DHT22;2976;49.764;9.796;2023-02-21T03:45:03;5.00;99.90
5901;DHT22;2976;49.764;9.796;2023-02-21T03:47:28;4.90;99.90
5901;DHT22;2976;49.764;9.796;2023-02-21T03:49:54;4.80;99.90
5901;DHT22;2976;49.764;9.796;2023-02-21T03:52:20;4.70;99.90
5901;DHT22;2976;49.764;9.796;2023-02-21T03:54:45;4.60;99.90
5901;DHT22;2976;49.764;9.796;2023-02-21T03:57:11;4.50;99.90
5901;DHT22;2976;49.764;9.796;2023-02-21T03:59:37;4.40;99.90
5901;DHT22;2976;49.764;9.796;2023-02-21T04:02:03;4.20;99.90
5901;DHT22;2976;49.764;9.796;2023-02-21T04:04:28;4.10;99.90
5901;DHT22;2976;49.764;9.796;2023-02-21T04:06:54;4.10;99.90
5901;DHT22;2976;49.764;9.796;2023-02-21T04:09:19;4.00;99.90
5901;DHT22;2976;49.764;9.796;2023-02-21T04:11:45;3.90;99.90
5901;DHT22;2976;49.764;9.796;2023-02-21T04:14:12;3.80;99.90
5901;DHT22;2976;49.764;9.796;2023-02-21T04:16:38;3.70;99.90
5901;DHT22;2976;49.764;9.796;2023-02-21T04:19:03;3.70;99.90
5901;DHT22;2976;49.764;9.796;2023-02-21T04:21:29;3.70;99.90
5901;DHT22;2976;49.764;9.796;2023-02-21T04:23:55;3.60;99.90
5901;DHT22;2976;49.764;9.796;2023-02-21T04:26:21;3.60;99.90
5901;DHT22;2976;49.764;9.796;2023-02-21T04:28:48;3.60;99.90
5901;DHT22;2976;49.764;9.796;2023-02-21T04:31:15;3.50;99.90
5901;DHT22;2976;49.764;9.796;2023-02-21T04:33:41;3.50;99.90
5901;DHT22;2976;49.764;9.796;2023-02-21T04:36:06;3.50;99.90
5901;DHT22;2976;49.764;9.796;2023-02-21T04:38:32;3.40;99.90
5901;DHT22;2976;49.764;9.796;2023-02-21T04:40:58;3.30;99.90
5901;DHT22;2976;49.764;9.796;2023-02-21T04:43:23;3.30;99.90
5901;DHT22;2976;49.764;9.796;2023-02-21T04:45:49;3.20;99.90
5901;DHT22;2976;49.764;9.796;2023-02-21T04:48:14;3.20;99.90
5901;DHT22;2976;49.764;9.796;2023-02-21T04:50:40;3.20;99.90
5901;DHT22;2976;49.764;9.796;2023-02-21T04:53:05;3.20;99.90
5901;DHT22;2976;49.764;9.796;2023-02-21T04:55:31;3.30;99.90
5901;DHT22;2976;49.764;9.796;2023-02-21T04:57:56;3.40;99.90
5901;DHT22;2976;49.764;9.796;2023-02-21T05:00:22;3.50;99.90
5901;DHT22;2976;49.764;9.796;2023-02-21T05:02:48;3.60;99.90
5901;DHT22;2976;49.764;9.796;2023-02-21T05:05:13;3.70;99.90
5901;DHT22;2976;49.764;9.796;2023-02-21T05:07:41;3.80;99.90
5901;DHT22;2976;49.764;9.796;2023-02-21T05:10:07;4.00;99.90
5901;DHT22;2976;49.764;9.796;2023-02-21T05:12:34;4.10;99.90
5901;DHT22;2976;49.764;9.796;2023-02-21T05:15:00;4.20;99.90
5901;DHT22;2976;49.764;9.796;2023-02-21T05:17:25;4.30;99.90
5901;DHT22;2976;49.764;9.796;2023-02-21T05:19:52;4.40;99.90
5901;DHT22;2976;49.764;9.796;2023-02-21T05:22:19;4.50;99.90
5901;DHT22;2976;49.764;9.796;2023-02-21T05:24:45;4.50;99.90
5901;DHT22;2976;49.764;9.796;2023-02-21T05:27:14;4.60;99.90
5901;DHT22;2976;49.764;9.796;2023-02-21T05:29:50;4.60;99.90
5901;DHT22;2976;49.764;9.796;2023-02-21T05:32:17;4.50;99.90
5901;DHT22;2976;49.764;9.796;2023-02-21T05:34:44;4.50;99.90
5901;DHT22;2976;49.764;9.796;2023-02-21T05:37:16;4.50;99.90
5901;DHT22;2976;49.764;9.796;2023-02-21T05:39:42;4.60;99.90
5901;DHT22;2976;49.764;9.796;2023-02-21T05:42:08;4.50;99.90
5901;DHT22;2976;49.764;9.796;2023-02-21T05:44:34;4.40;99.90
5901;DHT22;2976;49.764;9.796;2023-02-21T05:46:59;4.20;99.90
5901;DHT22;2976;49.764;9.796;2023-02-21T05:49:26;4.10;99.90
5901;DHT22;2976;49.764;9.796;2023-02-21T05:51:52;4.00;99.90
5901;DHT22;2976;49.764;9.796;2023-02-21T05:54:19;3.90;99.90
5901;DHT22;2976;49.764;9.796;2023-02-21T05:56:47;3.90;99.90
5901;DHT22;2976;49.764;9.796;2023-02-21T05:59:14;3.80;99.90
5901;DHT22;2976;49.764;9.796;2023-02-21T06:01:40;3.80;99.90
5901;DHT22;2976;49.764;9.796;2023-02-21T06:04:06;3.90;99.90
5901;DHT22;2976;49.764;9.796;2023-02-21T06:06:36;3.90;99.90
5901;DHT22;2976;49.764;9.796;2023-02-21T06:09:02;3.90;99.90
5901;DHT22;2976;49.764;9.796;2023-02-21T06:11:31;3.90;99.90
5901;DHT22;2976;49.764;9.796;2023-02-21T06:13:58;3.90;99.90
5901;DHT22;2976;49.764;9.796;2023-02-21T06:16:25;3.80;99.90
5901;DHT22;2976;49.764;9.796;2023-02-21T06:18:52;3.70;99.90
5901;DHT22;2976;49.764;9.796;2023-02-21T06:21:18;3.70;99.90
5901;DHT22;2976;49.764;9.796;2023-02-21T06:23:44;3.70;99.90
5901;DHT22;2976;49.764;9.796;2023-02-21T06:26:10;3.70;99.90
5901;DHT22;2976;49.764;9.796;2023-02-21T06:28:35;3.80;99.90
5901;DHT22;2976;49.764;9.796;2023-02-21T06:31:03;3.70;99.90
5901;DHT22;2976;49.764;9.796;2023-02-21T06:33:28;3.70;99.90
5901;DHT22;2976;49.764;9.796;2023-02-21T06:35:54;3.70;99.90
5901;DHT22;2976;49.764;9.796;2023-02-21T06:38:19;3.70;99.90
5901;DHT22;2976;49.764;9.796;2023-02-21T06:40:45;3.70;99.90
5901;DHT22;2976;49.764;9.796;2023-02-21T06:43:11;3.60;99.90
5901;DHT22;2976;49.764;9.796;2023-02-21T06:45:36;3.70;99.90
5901;DHT22;2976;49.764;9.796;2023-02-21T06:48:02;3.70;99.90
5901;DHT22;2976;49.764;9.796;2023-02-21T06:50:28;3.80;99.90
5901;DHT22;2976;49.764;9.796;2023-02-21T06:52:53;3.80;99.90
5901;DHT22;2976;49.764;9.796;2023-02-21T06:55:20;3.90;99.90
5901;DHT22;2976;49.764;9.796;2023-02-21T06:57:47;4.00;99.90
5901;DHT22;2976;49.764;9.796;2023-02-21T07:00:13;4.10;99.90
5901;DHT22;2976;49.764;9.796;2023-02-21T07:02:38;4.40;99.90
5901;DHT22;2976;49.764;9.796;2023-02-21T07:05:04;4.60;99.90
5901;DHT22;2976;49.764;9.796;2023-02-21T07:07:30;4.70;99.90
5901;DHT22;2976;49.764;9.796;2023-02-21T07:09:56;4.90;99.90
5901;DHT22;2976;49.764;9.796;2023-02-21T07:12:21;5.10;99.90
5901;DHT22;2976;49.764;9.796;2023-02-21T07:14:47;5.30;99.90
5901;DHT22;2976;49.764;9.796;2023-02-21T07:17:12;5.40;99.90
5901;DHT22;2976;49.764;9.796;2023-02-21T07:19:38;5.60;99.90
5901;DHT22;2976;49.764;9.796;2023-02-21T07:22:04;5.90;99.90
5901;DHT22;2976;49.764;9.796;2023-02-21T07:24:30;6.10;99.90
5901;DHT22;2976;49.764;9.796;2023-02-21T07:26:56;6.30;99.90
5901;DHT22;2976;49.764;9.796;2023-02-21T07:29:21;6.40;99.90
5901;DHT22;2976;49.764;9.796;2023-02-21T07:31:47;6.70;99.90
5901;DHT22;2976;49.764;9.796;2023-02-21T07:34:12;7.00;99.90
5901;DHT22;2976;49.764;9.796;2023-02-21T07:36:39;7.40;99.90
5901;DHT22;2976;49.764;9.796;2023-02-21T07:39:05;7.60;99.90
5901;DHT22;2976;49.764;9.796;2023-02-21T07:41:30;7.70;99.90
5901;DHT22;2976;49.764;9.796;2023-02-21T07:43:56;8.10;99.90
5901;DHT22;2976;49.764;9.796;2023-02-21T07:46:25;8.00;99.90
5901;DHT22;2976;49.764;9.796;2023-02-21T07:48:51;7.80;99.90
5901;DHT22;2976;49.764;9.796;2023-02-21T07:51:17;8.00;99.90
5901;DHT22;2976;49.764;9.796;2023-02-21T07:53:42;8.20;99.90
5901;DHT22;2976;49.764;9.796;2023-02-21T07:56:08;8.40;99.90
5901;DHT22;2976;49.764;9.796;2023-02-21T07:58:33;8.40;99.90
5901;DHT22;2976;49.764;9.796;2023-02-21T08:01:05;8.60;99.90
5901;DHT22;2976;49.764;9.796;2023-02-21T08:03:31;8.70;99.90
5901;DHT22;2976;49.764;9.796;2023-02-21T08:05:58;9.10;99.90
5901;DHT22;2976;49.764;9.796;2023-02-21T08:08:24;9.40;90.00
5901;DHT22;2976;49.764;9.796;2023-02-21T08:10:49;9.40;96.50
5901;DHT22;2976;49.764;9.796;2023-02-21T08:13:15;9.60;98.90
5901;DHT22;2976;49.764;9.796;2023-02-21T08:15:40;9.70;82.80
5901;DHT22;2976;49.764;9.796;2023-02-21T08:18:10;9.60;90.30
5901;DHT22;2976;49.764;9.796;2023-02-21T08:20:42;9.50;93.00
5901;DHT22;2976;49.764;9.796;2023-02-21T08:23:08;9.40;91.20
5901;DHT22;2976;49.764;9.796;2023-02-21T08:25:33;9.10;99.90
5901;DHT22;2976;49.764;9.796;2023-02-21T08:27:59;9.00;99.90
5901;DHT22;2976;49.764;9.796;2023-02-21T08:30:24;9.00;99.90
5901;DHT22;2976;49.764;9.796;2023-02-21T08:32:50;8.90;99.90
5901;DHT22;2976;49.764;9.796;2023-02-21T08:35:17;8.80;99.90
5901;DHT22;2976;49.764;9.796;2023-02-21T08:37:44;8.70;99.90
5901;DHT22;2976;49.764;9.796;2023-02-21T08:40:10;8.80;99.90
5901;DHT22;2976;49.764;9.796;2023-02-21T08:42:36;8.80;99.90
5901;DHT22;2976;49.764;9.796;2023-02-21T08:45:01;9.00;99.90
5901;DHT22;2976;49.764;9.796;2023-02-21T08:47:27;9.10;99.90
5901;DHT22;2976;49.764;9.796;2023-02-21T08:49:53;9.20;99.90
5901;DHT22;2976;49.764;9.796;2023-02-21T08:52:19;9.10;99.90
5901;DHT22;2976;49.764;9.796;2023-02-21T08:54:46;9.20;99.90
5901;DHT22;2976;49.764;9.796;2023-02-21T08:57:12;9.20;99.90
5901;DHT22;2976;49.764;9.796;2023-02-21T08:59:42;9.40;99.90
5901;DHT22;2976;49.764;9.796;2023-02-21T09:02:17;9.40;99.90
5901;DHT22;2976;49.764;9.796;2023-02-21T09:04:44;9.60;99.90
5901;DHT22;2976;49.764;9.796;2023-02-21T09:07:15;9.70;99.90
5901;DHT22;2976;49.764;9.796;2023-02-21T09:09:40;9.90;99.90
5901;DHT22;2976;49.764;9.796;2023-02-21T09:12:06;9.90;99.90
5901;DHT22;2976;49.764;9.796;2023-02-21T09:14:36;10.20;99.90
5901;DHT22;2976;49.764;9.796;2023-02-21T09:17:03;10.30;97.00
5901;DHT22;2976;49.764;9.796;2023-02-21T09:19:29;10.40;95.80
5901;DHT22;2976;49.764;9.796;2023-02-21T09:21:55;10.60;97.10
5901;DHT22;2976;49.764;9.796;2023-02-21T09:24:21;10.70;90.20
5901;DHT22;2976;49.764;9.796;2023-02-21T09:26:50;10.80;82.40
5901;DHT22;2976;49.764;9.796;2023-02-21T09:29:21;10.90;74.30
5901;DHT22;2976;49.764;9.796;2023-02-21T09:31:48;10.90;81.70
5901;DHT22;2976;49.764;9.796;2023-02-21T09:34:14;10.90;78.10
5901;DHT22;2976;49.764;9.796;2023-02-21T09:36:39;10.90;86.00
5901;DHT22;2976;49.764;9.796;2023-02-21T09:39:05;10.80;84.90
5901;DHT22;2976;49.764;9.796;2023-02-21T09:41:32;10.70;92.50
5901;DHT22;2976;49.764;9.796;2023-02-21T09:43:59;10.90;92.20
5901;DHT22;2976;49.764;9.796;2023-02-21T09:46:35;11.00;94.20
5901;DHT22;2976;49.764;9.796;2023-02-21T09:49:04;10.90;99.40
5901;DHT22;2976;49.764;9.796;2023-02-21T09:51:32;11.10;98.10
5901;DHT22;2976;49.764;9.796;2023-02-21T09:54:02;11.20;99.90
5901;DHT22;2976;49.764;9.796;2023-02-21T09:56:32;11.60;95.00
5901;DHT22;2976;49.764;9.796;2023-02-21T09:58:59;11.80;80.30
5901;DHT22;2976;49.764;9.796;2023-02-21T10:06:47;12.60;77.60
5901;DHT22;2976;49.764;9.796;2023-02-21T10:09:20;12.70;69.80
5901;DHT22;2976;49.764;9.796;2023-02-21T10:18:14;13.40;25.00
5901;DHT22;2976;49.764;9.796;2023-02-21T10:20:51;13.40;1.00
5901;DHT22;2976;49.764;9.796;2023-02-21T10:23:28;13.10;23.60
5901;DHT22;2976;49.764;9.796;2023-02-21T10:25:58;12.80;35.70
5901;DHT22;2976;49.764;9.796;2023-02-21T10:28:27;12.70;53.00
5901;DHT22;2976;49.764;9.796;2023-02-21T10:30:57;12.50;52.80
5901;DHT22;2976;49.764;9.796;2023-02-21T10:33:24;12.50;82.30
5901;DHT22;2976;49.764;9.796;2023-02-21T10:35:50;12.70;62.70
5901;DHT22;2976;49.764;9.796;2023-02-21T10:38:23;12.60;70.40
5901;DHT22;2976;49.764;9.796;2023-02-21T10:40:56;12.60;79.80
5901;DHT22;2976;49.764;9.796;2023-02-21T10:43:37;12.60;74.10
5901;DHT22;2976;49.764;9.796;2023-02-21T10:46:12;12.50;82.60
5901;DHT22;2976;49.764;9.796;2023-02-21T10:48:41;12.50;78.20
5901;DHT22;2976;49.764;9.796;2023-02-21T10:51:32;12.60;83.50
5901;DHT22;2976;49.764;9.796;2023-02-21T10:54:21;12.50;90.20
5901;DHT22;2976;49.764;9.796;2023-02-21T10:56:48;12.50;94.60
5901;DHT22;2976;49.764;9.796;2023-02-21T10:59:28;12.50;96.50
5901;DHT22;2976;49.764;9.796;2023-02-21T11:01:54;12.50;92.40
5901;DHT22;2976;49.764;9.796;2023-02-21T11:06:50;12.70;99.20
5901;DHT22;2976;49.764;9.796;2023-02-21T11:12:22;12.90;98.10
5901;DHT22;2976;49.764;9.796;2023-02-21T11:17:23;13.20;93.20
5901;DHT22;2976;49.764;9.796;2023-02-21T11:22:19;13.10;94.60
5901;DHT22;2976;49.764;9.796;2023-02-21T11:27:17;12.90;99.80
5901;DHT22;2976;49.764;9.796;2023-02-21T11:29:45;13.00;99.90
5901;DHT22;2976;49.764;9.796;2023-02-21T11:32:26;13.20;98.80
5901;DHT22;2976;49.764;9.796;2023-02-21T11:35:21;13.40;92.20
5901;DHT22;2976;49.764;9.796;2023-02-21T11:37:59;13.40;87.50
5901;DHT22;2976;49.764;9.796;2023-02-21T11:43:26;13.70;69.50
5901;DHT22;2976;49.764;9.796;2023-02-21T11:48:59;13.70;53.50
5901;DHT22;2976;49.764;9.796;2023-02-21T11:51:57;13.50;71.00
5901;DHT22;2976;49.764;9.796;2023-02-21T11:54:27;13.60;69.40
5901;DHT22;2976;49.764;9.796;2023-02-21T11:57:12;13.60;83.10
5901;DHT22;2976;49.764;9.796;2023-02-21T12:00:02;14.10;83.30
5901;DHT22;2976;49.764;9.796;2023-02-21T12:06:02;14.70;26.10
5901;DHT22;2976;49.764;9.796;2023-02-21T12:08:46;14.40;4.90
5901;DHT22;2976;49.764;9.796;2023-02-21T12:23:14;15.50;1.00
5901;DHT22;2976;49.764;9.796;2023-02-21T12:31:55;15.10;1.00
5901;DHT22;2976;49.764;9.796;2023-02-21T12:40:50;14.80;1.00
5901;DHT22;2976;49.764;9.796;2023-02-21T12:46:38;14.90;1.00
5901;DHT22;2976;49.764;9.796;2023-02-21T12:49:18;14.90;1.00
5901;DHT22;2976;49.764;9.796;2023-02-21T12:52:14;14.80;1.00
5901;DHT22;2976;49.764;9.796;2023-02-21T12:54:59;15.00;1.00
5901;DHT22;2976;49.764;9.796;2023-02-21T13:03:12;15.40;1.00
5901;DHT22;2976;49.764;9.796;2023-02-21T13:05:55;15.40;1.00
5901;DHT22;2976;49.764;9.796;2023-02-21T13:08:27;15.40;1.00
5901;DHT22;2976;49.764;9.796;2023-02-21T13:11:08;15.50;1.00
5901;DHT22;2976;49.764;9.796;2023-02-21T13:13:36;15.60;1.00
5901;DHT22;2976;49.764;9.796;2023-02-21T13:16:05;15.60;1.00
5901;DHT22;2976;49.764;9.796;2023-02-21T13:18:45;15.60;1.00
5901;DHT22;2976;49.764;9.796;2023-02-21T13:21:45;15.50;1.00
5901;DHT22;2976;49.764;9.796;2023-02-21T13:24:41;15.50;1.00
5901;DHT22;2976;49.764;9.796;2023-02-21T13:29:42;15.70;1.00
5901;DHT22;2976;49.764;9.796;2023-02-21T13:32:13;15.60;99.90
5901;DHT22;2976;49.764;9.796;2023-02-21T13:34:44;15.50;1.00
5901;DHT22;2976;49.764;9.796;2023-02-21T13:37:22;15.50;1.00
5901;DHT22;2976;49.764;9.796;2023-02-21T13:39:58;15.50;1.00
5901;DHT22;2976;49.764;9.796;2023-02-21T13:42:33;15.30;99.90
5901;DHT22;2976;49.764;9.796;2023-02-21T13:45:13;15.10;1.00
5901;DHT22;2976;49.764;9.796;2023-02-21T13:55:34;14.60;1.00
5901;DHT22;2976;49.764;9.796;2023-02-21T14:08:21;14.30;1.00
5901;DHT22;2976;49.764;9.796;2023-02-21T14:10:53;14.30;1.00
5901;DHT22;2976;49.764;9.796;2023-02-21T14:13:36;14.20;12.10
5901;DHT22;2976;49.764;9.796;2023-02-21T14:16:28;14.20;3.10
5901;DHT22;2976;49.764;9.796;2023-02-21T14:21:40;14.10;5.00
5901;DHT22;2976;49.764;9.796;2023-02-21T14:24:14;14.10;14.20
5901;DHT22;2976;49.764;9.796;2023-02-21T14:29:36;14.10;25.30
5901;DHT22;2976;49.764;9.796;2023-02-21T14:37:31;14.00;8.40
5901;DHT22;2976;49.764;9.796;2023-02-21T14:40:00;14.00;23.20
5901;DHT22;2976;49.764;9.796;2023-02-21T14:47:58;13.90;14.90
5901;DHT22;2976;49.764;9.796;2023-02-21T14:56:11;14.00;14.20
5901;DHT22;2976;49.764;9.796;2023-02-21T14:59:06;14.00;14.60
5901;DHT22;2976;49.764;9.796;2023-02-21T15:01:46;13.90;9.20
5901;DHT22;2976;49.764;9.796;2023-02-21T15:09:39;13.80;18.60
5901;DHT22;2976;49.764;9.796;2023-02-21T15:12:12;13.80;23.30
5901;DHT22;2976;49.764;9.796;2023-02-21T15:14:46;13.80;13.40
5901;DHT22;2976;49.764;9.796;2023-02-21T15:17:17;13.80;15.60
5901;DHT22;2976;49.764;9.796;2023-02-21T15:19:43;13.80;20.80
5901;DHT22;2976;49.764;9.796;2023-02-21T15:30:17;13.70;25.80
5901;DHT22;2976;49.764;9.796;2023-02-21T15:32:43;13.70;33.00
5901;DHT22;2976;49.764;9.796;2023-02-21T15:35:22;13.60;28.70
5901;DHT22;2976;49.764;9.796;2023-02-21T15:37:49;13.50;27.80
5901;DHT22;2976;49.764;9.796;2023-02-21T15:40:19;13.40;30.30
5901;DHT22;2976;49.764;9.796;2023-02-21T15:42:45;13.30;36.60
5901;DHT22;2976;49.764;9.796;2023-02-21T15:45:33;13.30;40.20
5901;DHT22;2976;49.764;9.796;2023-02-21T15:48:00;13.30;38.60
5901;DHT22;2976;49.764;9.796;2023-02-21T15:50:35;13.30;39.80
5901;DHT22;2976;49.764;9.796;2023-02-21T15:53:20;13.30;34.20
5901;DHT22;2976;49.764;9.796;2023-02-21T15:55:47;13.40;43.00
5901;DHT22;2976;49.764;9.796;2023-02-21T15:58:20;13.30;42.00
5901;DHT22;2976;49.764;9.796;2023-02-21T16:00:47;13.20;45.20
5901;DHT22;2976;49.764;9.796;2023-02-21T16:06:23;13.10;46.90
5901;DHT22;2976;49.764;9.796;2023-02-21T16:09:17;12.90;52.30
5901;DHT22;2976;49.764;9.796;2023-02-21T16:12:03;12.80;53.20
5901;DHT22;2976;49.764;9.796;2023-02-21T16:14:47;12.70;59.40
5901;DHT22;2976;49.764;9.796;2023-02-21T16:17:27;12.70;74.50
5901;DHT22;2976;49.764;9.796;2023-02-21T16:19:57;12.60;75.80
5901;DHT22;2976;49.764;9.796;2023-02-21T16:27:35;12.20;86.80
5901;DHT22;2976;49.764;9.796;2023-02-21T16:30:01;12.00;90.30
5901;DHT22;2976;49.764;9.796;2023-02-21T16:32:26;11.90;92.60
5901;DHT22;2976;49.764;9.796;2023-02-21T16:34:52;11.70;95.10
5901;DHT22;2976;49.764;9.796;2023-02-21T16:37:20;11.60;98.50
5901;DHT22;2976;49.764;9.796;2023-02-21T16:39:45;11.40;99.90
5901;DHT22;2976;49.764;9.796;2023-02-21T16:42:12;11.30;99.90
5901;DHT22;2976;49.764;9.796;2023-02-21T16:44:37;11.10;99.90
5901;DHT22;2976;49.764;9.796;2023-02-21T16:47:03;11.00;99.90
5901;DHT22;2976;49.764;9.796;2023-02-21T16:49:30;10.90;99.90
5901;DHT22;2976;49.764;9.796;2023-02-21T16:51:55;10.80;99.90
5901;DHT22;2976;49.764;9.796;2023-02-21T16:54:21;10.70;99.90
5901;DHT22;2976;49.764;9.796;2023-02-21T16:56:49;10.60;99.90
5901;DHT22;2976;49.764;9.796;2023-02-21T16:59:19;10.50;99.90
5901;DHT22;2976;49.764;9.796;2023-02-21T17:01:45;10.40;99.90
5901;DHT22;2976;49.764;9.796;2023-02-21T17:04:17;10.30;99.90
5901;DHT22;2976;49.764;9.796;2023-02-21T17:06:46;10.10;99.90
5901;DHT22;2976;49.764;9.796;2023-02-21T17:09:17;10.10;99.90
5901;DHT22;2976;49.764;9.796;2023-02-21T17:11:43;10.00;99.90
5901;DHT22;2976;49.764;9.796;2023-02-21T17:14:09;10.00;99.90
5901;DHT22;2976;49.764;9.796;2023-02-21T17:16:34;9.90;99.90
5901;DHT22;2976;49.764;9.796;2023-02-21T17:19:02;9.80;99.90
5901;DHT22;2976;49.764;9.796;2023-02-21T17:21:27;9.80;99.90
5901;DHT22;2976;49.764;9.796;2023-02-21T17:23:53;9.70;99.90
5901;DHT22;2976;49.764;9.796;2023-02-21T17:26:18;9.70;99.90
5901;DHT22;2976;49.764;9.796;2023-02-21T17:28:44;9.70;99.90
5901;DHT22;2976;49.764;9.796;2023-02-21T17:31:16;9.70;99.90
5901;DHT22;2976;49.764;9.796;2023-02-21T17:33:43;9.70;99.90
5901;DHT22;2976;49.764;9.796;2023-02-21T17:36:15;9.70;99.90
5901;DHT22;2976;49.764;9.796;2023-02-21T17:38:41;9.80;99.90
5901;DHT22;2976;49.764;9.796;2023-02-21T17:41:06;9.80;99.90
5901;DHT22;2976;49.764;9.796;2023-02-21T17:43:33;9.80;99.90
5901;DHT22;2976;49.764;9.796;2023-02-21T17:45:58;9.70;99.90
5901;DHT22;2976;49.764;9.796;2023-02-21T17:48:24;9.70;99.90
5901;DHT22;2976;49.764;9.796;2023-02-21T17:50:50;9.70;99.90
5901;DHT22;2976;49.764;9.796;2023-02-21T17:53:15;9.70;99.90
5901;DHT22;2976;49.764;9.796;2023-02-21T17:55:41;9.60;99.90
5901;DHT22;2976;49.764;9.796;2023-02-21T17:58:06;9.60;99.90
5901;DHT22;2976;49.764;9.796;2023-02-21T18:00:32;9.50;99.90
5901;DHT22;2976;49.764;9.796;2023-02-21T18:02:59;9.50;99.90
5901;DHT22;2976;49.764;9.796;2023-02-21T18:05:29;9.50;99.90
5901;DHT22;2976;49.764;9.796;2023-02-21T18:07:56;9.50;99.90
5901;DHT22;2976;49.764;9.796;2023-02-21T18:10:23;9.60;99.90
5901;DHT22;2976;49.764;9.796;2023-02-21T18:12:49;9.50;99.90
5901;DHT22;2976;49.764;9.796;2023-02-21T18:15:15;9.40;99.90
5901;DHT22;2976;49.764;9.796;2023-02-21T18:17:41;9.20;99.90
5901;DHT22;2976;49.764;9.796;2023-02-21T18:20:08;9.10;99.90
5901;DHT22;2976;49.764;9.796;2023-02-21T18:22:34;8.90;99.90
5901;DHT22;2976;49.764;9.796;2023-02-21T18:25:00;8.80;99.90
5901;DHT22;2976;49.764;9.796;2023-02-21T18:27:26;8.70;99.90
5901;DHT22;2976;49.764;9.796;2023-02-21T18:29:51;8.60;99.90
5901;DHT22;2976;49.764;9.796;2023-02-21T18:32:21;8.50;99.90
5901;DHT22;2976;49.764;9.796;2023-02-21T18:34:46;8.30;99.90
5901;DHT22;2976;49.764;9.796;2023-02-21T18:37:12;8.10;99.90
5901;DHT22;2976;49.764;9.796;2023-02-21T18:39:37;7.90;99.90
5901;DHT22;2976;49.764;9.796;2023-02-21T18:42:03;7.80;99.90
5901;DHT22;2976;49.764;9.796;2023-02-21T18:44:30;7.60;99.90
5901;DHT22;2976;49.764;9.796;2023-02-21T18:46:56;7.50;99.90
5901;DHT22;2976;49.764;9.796;2023-02-21T18:49:24;7.40;99.90
5901;DHT22;2976;49.764;9.796;2023-02-21T18:51:50;7.40;99.90
5901;DHT22;2976;49.764;9.796;2023-02-21T18:54:17;7.30;99.90
5901;DHT22;2976;49.764;9.796;2023-02-21T18:56:50;7.30;99.90
5901;DHT22;2976;49.764;9.796;2023-02-21T18:59:17;7.30;99.90
5901;DHT22;2976;49.764;9.796;2023-02-21T19:01:47;7.20;99.90
5901;DHT22;2976;49.764;9.796;2023-02-21T19:04:13;7.10;99.90
5901;DHT22;2976;49.764;9.796;2023-02-21T19:06:39;7.00;99.90
5901;DHT22;2976;49.764;9.796;2023-02-21T19:09:04;6.90;99.90
5901;DHT22;2976;49.764;9.796;2023-02-21T19:11:30;6.80;99.90
5901;DHT22;2976;49.764;9.796;2023-02-21T19:13:55;6.80;99.90
5901;DHT22;2976;49.764;9.796;2023-02-21T19:16:21;6.70;99.90
5901;DHT22;2976;49.764;9.796;2023-02-21T19:18:48;6.60;99.90
5901;DHT22;2976;49.764;9.796;2023-02-21T19:21:16;6.60;99.90
5901;DHT22;2976;49.764;9.796;2023-02-21T19:23:41;6.60;99.90